Time;durP1;ratioP1;P1;durP2;ratioP2;P2;SDS_P1;SDS_P2;PMS_P1;PMS_P2;Temp;Humidity;BMP_temperature;BMP_pressure;BME280_temperature;BME280_humidity;BME280_pressure;Samples;Min_cycle;Max_cycle;Signal;HPM_P1;HPM_P2
2024/04/02 00:02:18;;;;;;;19.80;3.40;;;;;;;;;;4961566;28;20047;-58
2024/04/02 00:04:44;;;;;;;25.52;4.45;;;;;;;;;;4947341;28;20031;-58
2024/04/02 00:07:09;;;;;;;26.85;4.30;;;;;;;;;;4946894;28;20035;-57
2024/04/02 00:09:35;;;;;;;24.42;4.53;;;;;;;;;;4961226;28;20574;-58
2024/04/02 00:12:00;;;;;;;23.92;4.60;;;;;;;;;;4954806;28;20547;-59
2024/04/02 00:14:25;;;;;;;20.08;3.38;;;;;;;;;;4965628;28;20039;-58
2024/04/02 00:16:50;;;;;;;18.10;3.72;;;;;;;;;;4965098;28;20037;-58
2024/04/02 00:19:16;;;;;;;18.65;3.22;;;;;;;;;;4957456;28;20434;-58
2024/04/02 00:21:41;;;;;;;19.73;3.75;;;;;;;;;;4956835;28;20062;-57
2024/04/02 00:24:06;;;;;;;22.27;3.70;;;;;;;;;;4957514;28;20562;-56
2024/04/02 00:26:32;;;;;;;20.27;3.53;;;;;;;;;;4947777;28;20035;-56
2024/04/02 00:28:57;;;;;;;21.88;3.95;;;;;;;;;;4960911;28;20037;-56
2024/04/02 00:31:24;;;;;;;19.70;4.30;;;;;;;;;;4961593;28;20083;-57
2024/04/02 00:33:49;;;;;;;19.23;3.45;;;;;;;;;;4966504;28;20046;-56
2024/04/02 00:36:15;;;;;;;19.30;3.42;;;;;;;;;;4962487;28;20040;-57
2024/04/02 00:38:40;;;;;;;18.40;3.38;;;;;;;;;;4953256;28;20046;-56
2024/04/02 00:41:05;;;;;;;19.95;4.22;;;;;;;;;;4962479;28;20101;-56
2024/04/02 00:43:30;;;;;;;25.05;4.25;;;;;;;;;;4949527;28;20138;-59
2024/04/02 00:45:56;;;;;;;24.08;3.72;;;;;;;;;;4948601;28;20057;-60
2024/04/02 00:48:21;;;;;;;16.92;3.20;;;;;;;;;;4955368;28;20054;-59
2024/04/02 00:50:48;;;;;;;21.77;3.83;;;;;;;;;;4959767;28;20053;-57
2024/04/02 00:53:14;;;;;;;22.05;3.70;;;;;;;;;;4967198;28;20133;-58
2024/04/02 00:55:41;;;;;;;19.83;3.38;;;;;;;;;;4954045;28;20087;-58
2024/04/02 00:58:06;;;;;;;18.50;3.60;;;;;;;;;;4960417;28;21100;-58
2024/04/02 01:00:34;;;;;;;19.77;3.85;;;;;;;;;;4964391;28;20519;-58
2024/04/02 01:03:00;;;;;;;19.98;3.15;;;;;;;;;;4958628;28;20475;-58
2024/04/02 01:05:25;;;;;;;18.75;3.45;;;;;;;;;;4947222;28;20046;-57
2024/04/02 01:07:51;;;;;;;19.85;3.42;;;;;;;;;;4957352;28;20042;-60
2024/04/02 01:10:16;;;;;;;17.00;3.45;;;;;;;;;;4942740;28;20043;-57
2024/04/02 01:12:41;;;;;;;16.77;3.67;;;;;;;;;;4960931;28;20050;-58
2024/04/02 01:15:07;;;;;;;20.60;3.88;;;;;;;;;;4965283;28;20035;-58
2024/04/02 01:17:32;;;;;;;18.30;3.45;;;;;;;;;;4974226;28;20130;-58
2024/04/02 01:19:57;;;;;;;16.65;3.25;;;;;;;;;;4963906;28;20081;-59
2024/04/02 01:22:23;;;;;;;20.10;4.00;;;;;;;;;;4958136;28;20595;-60
2024/04/02 01:24:50;;;;;;;20.20;3.35;;;;;;;;;;4960114;28;20086;-59
2024/04/02 01:27:15;;;;;;;24.02;4.00;;;;;;;;;;4947850;28;20114;-59
2024/04/02 01:29:41;;;;;;;25.35;3.95;;;;;;;;;;4954618;28;20183;-58
2024/04/02 01:32:06;;;;;;;21.48;3.80;;;;;;;;;;4949205;28;20097;-58
2024/04/02 01:34:33;;;;;;;20.17;3.80;;;;;;;;;;4961616;28;20114;-58
2024/04/02 01:36:58;;;;;;;18.80;3.55;;;;;;;;;;4949238;28;20028;-59
2024/04/02 01:39:23;;;;;;;18.45;3.17;;;;;;;;;;4952986;28;20038;-58
2024/04/02 01:41:49;;;;;;;18.83;3.80;;;;;;;;;;4969413;28;20030;-61
2024/04/02 01:44:14;;;;;;;16.15;3.28;;;;;;;;;;4950319;28;20035;-58
2024/04/02 01:46:39;;;;;;;17.63;3.47;;;;;;;;;;4971149;28;20423;-57
2024/04/02 01:49:05;;;;;;;20.95;3.40;;;;;;;;;;4952120;28;20398;-59
2024/04/02 01:51:30;;;;;;;18.58;3.35;;;;;;;;;;4957017;28;20509;-59
2024/04/02 01:53:55;;;;;;;15.57;3.25;;;;;;;;;;4966673;28;20072;-59
2024/04/02 01:56:21;;;;;;;16.38;3.03;;;;;;;;;;4950622;28;20043;-60
2024/04/02 01:58:46;;;;;;;20.05;3.55;;;;;;;;;;4962088;28;20038;-60
2024/04/02 02:01:11;;;;;;;17.13;3.45;;;;;;;;;;4944917;28;20035;-59
2024/04/02 02:03:37;;;;;;;17.02;3.63;;;;;;;;;;4947648;28;20105;-59
2024/04/02 02:06:02;;;;;;;15.80;3.10;;;;;;;;;;4949716;28;20043;-59
2024/04/02 02:08:28;;;;;;;18.38;2.85;;;;;;;;;;4948862;28;20082;-58
2024/04/02 02:10:56;;;;;;;19.40;3.33;;;;;;;;;;4962135;28;20474;-58
2024/04/02 02:13:22;;;;;;;16.10;3.20;;;;;;;;;;4964490;28;20118;-58
2024/04/02 02:15:57;;;;;;;20.15;3.72;;;;;;;;;;4966193;28;20077;-59
2024/04/02 02:18:23;;;;;;;19.13;3.55;;;;;;;;;;4964876;28;20047;-58
2024/04/02 02:20:48;;;;;;;17.08;3.08;;;;;;;;;;4967375;28;20039;-57
2024/04/02 02:23:14;;;;;;;17.35;3.53;;;;;;;;;;4950891;28;20043;-57
2024/04/02 02:25:40;;;;;;;15.57;2.95;;;;;;;;;;4963819;28;20039;-58
2024/04/02 02:28:07;;;;;;;13.60;2.97;;;;;;;;;;4976511;28;20035;-58
2024/04/02 02:30:32;;;;;;;16.50;3.25;;;;;;;;;;4958059;28;20046;-59
2024/04/02 02:32:57;;;;;;;16.70;3.38;;;;;;;;;;4953962;28;20038;-57
2024/04/02 02:35:22;;;;;;;19.48;3.38;;;;;;;;;;4953864;28;20015;-60
2024/04/02 02:37:48;;;;;;;22.27;3.63;;;;;;;;;;4952948;28;20617;-59
2024/04/02 02:40:13;;;;;;;18.92;3.78;;;;;;;;;;4958789;28;20106;-59
2024/04/02 02:42:38;;;;;;;16.95;2.95;;;;;;;;;;4953519;28;20471;-57
2024/04/02 02:45:04;;;;;;;22.63;3.22;;;;;;;;;;4960714;28;20455;-58
2024/04/02 02:47:29;;;;;;;20.25;3.80;;;;;;;;;;4953100;28;20402;-58
2024/04/02 02:49:55;;;;;;;16.40;3.20;;;;;;;;;;4955098;28;20094;-58
2024/04/02 02:52:20;;;;;;;20.85;3.80;;;;;;;;;;4956130;28;20474;-57
2024/04/02 02:54:45;;;;;;;17.60;2.88;;;;;;;;;;4935340;28;20034;-58
2024/04/02 02:57:11;;;;;;;19.30;3.22;;;;;;;;;;4934557;28;20015;-57
2024/04/02 02:59:37;;;;;;;18.15;3.45;;;;;;;;;;4933999;28;20027;-58
2024/04/02 03:02:02;;;;;;;18.17;3.10;;;;;;;;;;4936726;28;20617;-58
2024/04/02 03:04:27;;;;;;;17.48;3.58;;;;;;;;;;4952446;28;20043;-58
2024/04/02 03:06:53;;;;;;;16.98;3.65;;;;;;;;;;4935538;28;20055;-58
2024/04/02 03:09:19;;;;;;;17.35;3.80;;;;;;;;;;4982820;23;21406;-75
2024/04/02 03:11:44;;;;;;;15.30;3.17;;;;;;;;;;5019609;28;20026;-75
2024/04/02 03:14:11;;;;;;;14.30;2.80;;;;;;;;;;5037172;28;20061;-77
2024/04/02 03:16:36;;;;;;;14.95;3.65;;;;;;;;;;5020273;28;20456;-76
2024/04/02 03:19:01;;;;;;;16.92;3.05;;;;;;;;;;5018076;28;20506;-77
2024/04/02 03:21:27;;;;;;;20.98;3.60;;;;;;;;;;5020863;28;20032;-74
2024/04/02 03:23:54;;;;;;;20.33;3.40;;;;;;;;;;5022792;28;20056;-74
2024/04/02 03:26:20;;;;;;;21.77;3.60;;;;;;;;;;5019879;28;20133;-75
2024/04/02 03:28:46;;;;;;;18.65;3.30;;;;;;;;;;5020637;28;20052;-76
2024/04/02 03:31:11;;;;;;;17.40;2.90;;;;;;;;;;5021630;28;20032;-76
2024/04/02 03:33:36;;;;;;;18.65;3.22;;;;;;;;;;5020710;28;20080;-76
2024/04/02 03:36:04;;;;;;;14.80;3.10;;;;;;;;;;5017241;28;20402;-77
2024/04/02 03:38:30;;;;;;;16.83;3.08;;;;;;;;;;5019872;28;20025;-76
2024/04/02 03:40:55;;;;;;;15.00;3.22;;;;;;;;;;5036614;28;20484;-76
2024/04/02 03:43:20;;;;;;;18.10;3.30;;;;;;;;;;5020284;28;20064;-76
2024/04/02 03:45:46;;;;;;;19.80;4.05;;;;;;;;;;5023791;28;20103;-77
2024/04/02 03:48:12;;;;;;;16.08;3.10;;;;;;;;;;5018575;28;20038;-78
2024/04/02 03:50:38;;;;;;;16.02;3.58;;;;;;;;;;5024235;28;20055;-78
2024/04/02 03:53:03;;;;;;;17.15;3.38;;;;;;;;;;5015086;28;20037;-76
2024/04/02 03:55:35;;;;;;;17.58;3.22;;;;;;;;;;5015912;28;20026;-76
2024/04/02 03:58:01;;;;;;;18.42;3.45;;;;;;;;;;5015583;28;20056;-77
2024/04/02 04:00:26;;;;;;;18.65;3.72;;;;;;;;;;5013484;28;20026;-76
2024/04/02 04:02:52;;;;;;;19.73;3.47;;;;;;;;;;5014085;28;20045;-77
2024/04/02 04:05:17;;;;;;;16.80;3.22;;;;;;;;;;5017769;28;20030;-75
2024/04/02 04:07:42;;;;;;;20.38;3.22;;;;;;;;;;5020527;28;20481;-75
2024/04/02 04:10:08;;;;;;;15.48;3.55;;;;;;;;;;5023844;28;20133;-74
2024/04/02 04:12:33;;;;;;;18.10;3.75;;;;;;;;;;5021817;28;20049;-77
2024/04/02 04:14:59;;;;;;;19.00;3.40;;;;;;;;;;5020621;28;20071;-77
2024/04/02 04:17:24;;;;;;;20.50;3.58;;;;;;;;;;5020736;28;20469;-77
2024/04/02 04:19:50;;;;;;;16.90;3.58;;;;;;;;;;5018912;28;20115;-77
2024/04/02 04:22:15;;;;;;;15.85;2.97;;;;;;;;;;5023517;28;20037;-78
2024/04/02 04:24:42;;;;;;;16.90;2.72;;;;;;;;;;5024041;28;20040;-78
2024/04/02 04:27:07;;;;;;;15.65;3.00;;;;;;;;;;5024582;28;20078;-79
2024/04/02 04:29:33;;;;;;;17.30;3.05;;;;;;;;;;5020416;28;20052;-74
2024/04/02 04:31:58;;;;;;;15.43;3.20;;;;;;;;;;5020616;28;20026;-75
2024/04/02 04:34:24;;;;;;;22.35;3.17;;;;;;;;;;5018997;28;20550;-76
2024/04/02 04:36:50;;;;;;;15.70;3.17;;;;;;;;;;5024349;28;20037;-80
2024/04/02 04:39:15;;;;;;;15.23;3.20;;;;;;;;;;5022263;28;20041;-76
2024/04/02 04:41:41;;;;;;;12.65;2.97;;;;;;;;;;5017075;28;20408;-79
2024/04/02 04:44:06;;;;;;;13.50;2.92;;;;;;;;;;5014739;28;20143;-76
2024/04/02 04:46:31;;;;;;;20.38;4.47;;;;;;;;;;5015469;28;20034;-77
2024/04/02 04:48:57;;;;;;;16.38;3.45;;;;;;;;;;5013941;28;20091;-76
2024/04/02 04:51:22;;;;;;;23.25;3.47;;;;;;;;;;5016998;28;20042;-74
2024/04/02 04:53:47;;;;;;;19.48;3.55;;;;;;;;;;5034148;28;20181;-77
2024/04/02 04:56:13;;;;;;;18.58;3.10;;;;;;;;;;5017004;28;20045;-74
2024/04/02 04:58:38;;;;;;;17.27;3.25;;;;;;;;;;5015886;28;20037;-74
2024/04/02 05:01:04;;;;;;;22.95;3.85;;;;;;;;;;5018969;28;20038;-75
2024/04/02 05:03:29;;;;;;;16.27;3.33;;;;;;;;;;5020099;28;20076;-77
2024/04/02 05:06:04;;;;;;;18.55;3.35;;;;;;;;;;5022047;28;20041;-74
2024/04/02 05:08:30;;;;;;;17.98;3.38;;;;;;;;;;5019738;28;20137;-76
2024/04/02 05:10:55;;;;;;;15.75;3.50;;;;;;;;;;5026558;28;20489;-75
2024/04/02 05:13:21;;;;;;;17.67;3.13;;;;;;;;;;5026226;28;20128;-75
2024/04/02 05:15:46;;;;;;;16.27;3.30;;;;;;;;;;5019623;28;20034;-75
2024/04/02 05:18:12;;;;;;;22.45;3.22;;;;;;;;;;5022225;28;20073;-78
2024/04/02 05:20:37;;;;;;;16.02;2.75;;;;;;;;;;5028331;28;20430;-77
2024/04/02 05:23:03;;;;;;;16.88;3.28;;;;;;;;;;5022735;28;20055;-77
2024/04/02 05:25:29;;;;;;;16.27;3.38;;;;;;;;;;5037327;28;20022;-77
2024/04/02 05:27:54;;;;;;;17.55;3.65;;;;;;;;;;5017796;28;20030;-78
2024/04/02 05:30:20;;;;;;;18.38;3.90;;;;;;;;;;5027084;28;20526;-78
2024/04/02 05:32:45;;;;;;;14.50;3.05;;;;;;;;;;5023572;28;20573;-78
2024/04/02 05:35:10;;;;;;;18.27;3.28;;;;;;;;;;5026124;28;20041;-78
2024/04/02 05:37:36;;;;;;;17.00;3.13;;;;;;;;;;5021731;28;20584;-78
2024/04/02 05:40:04;;;;;;;16.05;3.05;;;;;;;;;;5025073;28;20048;-76
2024/04/02 05:42:29;;;;;;;17.52;2.83;;;;;;;;;;5020484;28;20038;-78
2024/04/02 05:44:55;;;;;;;14.00;2.70;;;;;;;;;;5025097;28;20047;-79
2024/04/02 05:47:22;;;;;;;19.13;3.08;;;;;;;;;;5025060;28;20584;-80
2024/04/02 05:49:48;;;;;;;15.13;3.17;;;;;;;;;;5025935;28;20107;-78
2024/04/02 05:52:16;;;;;;;18.13;3.55;;;;;;;;;;5024431;28;20084;-78
2024/04/02 05:54:41;;;;;;;14.93;3.75;;;;;;;;;;5025487;28;20033;-76
2024/04/02 05:57:06;;;;;;;15.68;3.65;;;;;;;;;;5022344;28;20141;-78
2024/04/02 05:59:32;;;;;;;17.05;3.75;;;;;;;;;;5027441;28;20029;-78
2024/04/02 06:01:58;;;;;;;16.92;3.33;;;;;;;;;;5013423;28;20152;-79
2024/04/02 06:04:23;;;;;;;19.58;3.42;;;;;;;;;;5027077;28;20037;-77
2024/04/02 06:06:49;;;;;;;15.30;3.50;;;;;;;;;;5022576;28;20045;-76
2024/04/02 06:09:14;;;;;;;14.68;3.20;;;;;;;;;;5016855;28;20318;-80
2024/04/02 06:11:39;;;;;;;15.75;3.38;;;;;;;;;;5020247;28;20168;-78
2024/04/02 06:14:06;;;;;;;15.05;3.03;;;;;;;;;;5023498;28;20064;-78
2024/04/02 06:16:32;;;;;;;13.73;3.58;;;;;;;;;;5018727;28;20037;-76
2024/04/02 06:18:58;;;;;;;16.30;3.47;;;;;;;;;;5021611;28;20018;-78
2024/04/02 06:21:24;;;;;;;10.65;2.75;;;;;;;;;;5028635;28;20030;-78
2024/04/02 06:23:50;;;;;;;16.52;3.17;;;;;;;;;;5025846;28;20060;-78
2024/04/02 06:26:17;;;;;;;14.57;3.35;;;;;;;;;;5024256;28;20061;-77
2024/04/02 06:28:42;;;;;;;14.63;3.10;;;;;;;;;;5024938;28;20034;-76
2024/04/02 06:31:07;;;;;;;15.40;2.97;;;;;;;;;;5020144;28;20154;-76
2024/04/02 06:33:33;;;;;;;20.83;3.15;;;;;;;;;;5020888;28;20038;-74
2024/04/02 06:35:59;;;;;;;17.67;3.20;;;;;;;;;;5024232;28;20051;-74
2024/04/02 06:38:24;;;;;;;19.70;3.63;;;;;;;;;;5025359;28;20061;-74
2024/04/02 06:40:49;;;;;;;14.98;3.72;;;;;;;;;;5020336;28;20494;-76
2024/04/02 06:43:15;;;;;;;15.60;3.85;;;;;;;;;;5029820;28;20133;-75
2024/04/02 06:45:41;;;;;;;17.98;3.53;;;;;;;;;;5016357;28;21945;-75
2024/04/02 06:48:07;;;;;;;15.00;3.20;;;;;;;;;;5053983;22;20044;-59
2024/04/02 06:50:32;;;;;;;13.95;3.47;;;;;;;;;;5000693;28;20046;-59
2024/04/02 06:52:58;;;;;;;21.95;3.85;;;;;;;;;;5003627;28;20125;-59
2024/04/02 06:55:23;;;;;;;18.67;4.15;;;;;;;;;;5004374;28;20042;-61
2024/04/02 06:57:49;;;;;;;16.25;3.83;;;;;;;;;;5004874;28;20456;-60
2024/04/02 07:00:16;;;;;;;16.05;3.10;;;;;;;;;;5006189;28;20041;-60
2024/04/02 07:02:41;;;;;;;14.75;3.75;;;;;;;;;;5003614;28;20073;-58
2024/04/02 07:05:07;;;;;;;14.68;3.00;;;;;;;;;;5002348;28;20503;-59
2024/04/02 07:07:32;;;;;;;19.42;3.22;;;;;;;;;;5003055;28;20046;-59
2024/04/02 07:09:57;;;;;;;15.60;3.60;;;;;;;;;;5002844;28;20034;-59
2024/04/02 07:12:23;;;;;;;14.77;2.85;;;;;;;;;;5002701;28;20038;-60
2024/04/02 07:14:48;;;;;;;14.40;3.42;;;;;;;;;;5002404;28;20442;-60
2024/04/02 07:17:13;;;;;;;13.40;3.20;;;;;;;;;;5003189;28;20054;-60
2024/04/02 07:19:39;;;;;;;12.07;3.20;;;;;;;;;;5003934;28;20045;-60
2024/04/02 07:22:04;;;;;;;14.20;3.60;;;;;;;;;;5003712;28;20065;-61
2024/04/02 07:24:29;;;;;;;12.85;3.22;;;;;;;;;;5001014;28;20049;-61
2024/04/02 07:26:55;;;;;;;14.15;3.38;;;;;;;;;;5003613;28;20026;-61
2024/04/02 07:29:20;;;;;;;10.82;3.15;;;;;;;;;;5002930;28;20417;-60
2024/04/02 07:31:46;;;;;;;16.58;3.33;;;;;;;;;;5002668;28;20746;-59
2024/04/02 07:34:11;;;;;;;10.60;2.58;;;;;;;;;;5003714;28;20085;-60
2024/04/02 07:36:36;;;;;;;11.20;3.60;;;;;;;;;;5000078;28;20459;-61
2024/04/02 07:39:05;;;;;;;14.90;3.30;;;;;;;;;;5006153;28;20037;-59
2024/04/02 07:41:30;;;;;;;13.82;3.28;;;;;;;;;;5006921;28;20038;-60
2024/04/02 07:43:55;;;;;;;16.98;3.60;;;;;;;;;;4994122;28;20030;-60
2024/04/02 07:46:21;;;;;;;12.70;3.50;;;;;;;;;;4988148;28;20057;-61
2024/04/02 07:48:46;;;;;;;13.05;3.47;;;;;;;;;;4998422;28;20042;-63
2024/04/02 07:51:11;;;;;;;11.48;3.53;;;;;;;;;;4999609;28;20034;-61
2024/04/02 07:53:37;;;;;;;14.63;3.92;;;;;;;;;;4987690;28;20189;-62
2024/04/02 07:56:02;;;;;;;14.43;3.83;;;;;;;;;;4991548;28;20053;-64
2024/04/02 07:58:28;;;;;;;12.45;3.72;;;;;;;;;;4987277;28;20042;-61
2024/04/02 08:00:53;;;;;;;18.40;4.00;;;;;;;;;;4991257;28;20026;-60
2024/04/02 08:03:18;;;;;;;16.00;4.95;;;;;;;;;;4991882;28;20129;-62
2024/04/02 08:05:44;;;;;;;18.70;5.20;;;;;;;;;;4987585;28;20137;-61
2024/04/02 08:08:09;;;;;;;19.13;4.85;;;;;;;;;;5002499;28;20053;-59
2024/04/02 08:10:35;;;;;;;19.95;5.10;;;;;;;;;;4987928;28;20062;-60
2024/04/02 08:13:00;;;;;;;17.67;4.97;;;;;;;;;;5014862;28;20108;-61
2024/04/02 08:15:25;;;;;;;18.25;5.00;;;;;;;;;;4989334;28;20038;-60
2024/04/02 08:17:51;;;;;;;18.95;4.95;;;;;;;;;;4987622;28;20104;-60
2024/04/02 08:20:16;;;;;;;20.15;5.20;;;;;;;;;;4991804;28;20041;-61
2024/04/02 08:22:42;;;;;;;15.70;6.10;;;;;;;;;;5004374;28;20494;-61
2024/04/02 08:25:07;;;;;;;20.60;5.07;;;;;;;;;;4988940;28;20069;-61
2024/04/02 08:27:33;;;;;;;20.95;4.45;;;;;;;;;;5003566;28;20041;-60
2024/04/02 08:29:58;;;;;;;19.35;4.72;;;;;;;;;;5006379;28;20042;-59
2024/04/02 08:32:24;;;;;;;16.88;4.20;;;;;;;;;;4988890;28;20529;-59
2024/04/02 08:34:49;;;;;;;18.88;4.57;;;;;;;;;;4992247;28;20465;-59
2024/04/02 08:37:15;;;;;;;17.00;4.57;;;;;;;;;;4997857;28;20034;-58
2024/04/02 08:39:43;;;;;;;15.57;4.30;;;;;;;;;;4991961;28;20038;-59
2024/04/02 08:42:09;;;;;;;17.40;4.40;;;;;;;;;;4986329;28;20088;-58
2024/04/02 08:44:35;;;;;;;17.40;4.30;;;;;;;;;;4986500;28;20080;-59
2024/04/02 08:47:01;;;;;;;20.65;4.78;;;;;;;;;;5009705;28;20121;-59
2024/04/02 08:49:27;;;;;;;19.35;3.95;;;;;;;;;;4993407;28;20137;-59
2024/04/02 08:51:53;;;;;;;16.42;4.22;;;;;;;;;;5021530;28;20421;-58
2024/04/02 08:54:18;;;;;;;12.48;3.63;;;;;;;;;;4992969;28;20045;-58
2024/04/02 08:56:43;;;;;;;17.58;4.22;;;;;;;;;;4985157;28;20046;-59
2024/04/02 08:59:09;;;;;;;14.00;4.20;;;;;;;;;;4986951;28;20038;-59
2024/04/02 09:01:35;;;;;;;15.80;4.03;;;;;;;;;;4997928;28;20049;-58
2024/04/02 09:04:01;;;;;;;12.93;3.95;;;;;;;;;;5005862;28;20034;-59
2024/04/02 09:06:26;;;;;;;13.85;4.20;;;;;;;;;;5004798;28;20442;-59
2024/04/02 09:08:52;;;;;;;18.73;3.58;;;;;;;;;;5006298;28;20517;-58
2024/04/02 09:11:18;;;;;;;12.38;3.72;;;;;;;;;;5012670;28;20034;-58
2024/04/02 09:13:43;;;;;;;13.60;3.75;;;;;;;;;;4985202;28;20069;-58
2024/04/02 09:16:10;;;;;;;14.07;3.60;;;;;;;;;;4986285;28;20045;-59
2024/04/02 09:18:37;;;;;;;16.48;3.72;;;;;;;;;;4986410;28;20038;-59
2024/04/02 09:21:02;;;;;;;11.18;3.35;;;;;;;;;;5000591;28;20038;-61
2024/04/02 09:23:28;;;;;;;10.10;3.30;;;;;;;;;;5002621;28;20038;-60
2024/04/02 09:25:54;;;;;;;11.60;3.22;;;;;;;;;;4992514;28;20035;-59
2024/04/02 09:28:19;;;;;;;11.32;3.70;;;;;;;;;;4986276;28;20049;-59
2024/04/02 09:30:45;;;;;;;14.13;3.75;;;;;;;;;;4985709;28;20045;-59
2024/04/02 09:33:10;;;;;;;15.30;3.40;;;;;;;;;;4986375;28;20066;-59
2024/04/02 09:35:55;;;;;;;12.52;3.45;;;;;;;;;;4985853;28;20125;-58
2024/04/02 09:38:20;;;;;;;16.25;3.58;;;;;;;;;;4987071;28;20058;-59
2024/04/02 09:40:46;;;;;;;16.52;3.83;;;;;;;;;;4986507;28;20102;-60
2024/04/02 09:43:12;;;;;;;11.90;3.25;;;;;;;;;;5001058;28;20109;-59
2024/04/02 09:45:38;;;;;;;13.88;3.40;;;;;;;;;;5000927;28;20410;-59
2024/04/02 09:48:03;;;;;;;10.45;2.85;;;;;;;;;;4987310;28;20038;-60
2024/04/02 09:50:29;;;;;;;11.20;3.00;;;;;;;;;;5016285;28;20018;-60
2024/04/02 09:52:54;;;;;;;13.40;3.40;;;;;;;;;;5003771;28;20554;-59
2024/04/02 09:55:20;;;;;;;10.15;2.97;;;;;;;;;;5012302;28;20026;-60
2024/04/02 09:57:45;;;;;;;9.35;2.38;;;;;;;;;;4995840;28;20505;-60
2024/04/02 10:00:11;;;;;;;11.65;2.65;;;;;;;;;;5007140;28;20021;-59
2024/04/02 10:02:37;;;;;;;7.10;1.95;;;;;;;;;;4994987;28;20092;-61
2024/04/02 10:05:02;;;;;;;11.00;2.25;;;;;;;;;;5004958;28;20049;-60
2024/04/02 10:07:28;;;;;;;6.90;1.83;;;;;;;;;;4989388;28;20022;-59
2024/04/02 10:09:57;;;;;;;7.68;1.83;;;;;;;;;;4998859;28;20017;-58
2024/04/02 10:12:25;;;;;;;8.27;1.60;;;;;;;;;;4999067;28;20022;-59
2024/04/02 10:14:51;;;;;;;7.00;1.70;;;;;;;;;;5007222;28;20025;-58
2024/04/02 10:17:16;;;;;;;6.50;1.75;;;;;;;;;;5003752;28;21719;-58
2024/04/02 10:19:48;;;;;;;5.93;1.73;;;;;;;;;;5019523;28;20104;-57
2024/04/02 10:22:24;;;;;;;5.88;1.60;;;;;;;;;;5003154;28;20034;-57
2024/04/02 10:25:01;;;;;;;4.63;1.92;;;;;;;;;;5000263;28;20510;-59
2024/04/02 10:27:32;;;;;;;8.80;1.90;;;;;;;;;;4996618;28;20038;-60
2024/04/02 10:29:57;;;;;;;6.13;1.80;;;;;;;;;;4990304;28;20117;-58
2024/04/02 10:32:22;;;;;;;5.93;1.90;;;;;;;;;;4994639;28;20048;-60
2024/04/02 10:34:47;;;;;;;5.82;1.80;;;;;;;;;;5003300;28;20064;-60
2024/04/02 10:37:13;;;;;;;6.13;1.67;;;;;;;;;;4999101;28;20073;-59
2024/04/02 10:39:38;;;;;;;6.72;1.75;;;;;;;;;;4997557;28;20042;-58
2024/04/02 10:42:04;;;;;;;5.10;1.45;;;;;;;;;;5006707;28;20458;-60
2024/04/02 10:44:29;;;;;;;3.95;1.35;;;;;;;;;;5002792;28;20054;-58
2024/04/02 10:46:55;;;;;;;5.60;2.00;;;;;;;;;;5004214;28;20033;-58
2024/04/02 10:49:20;;;;;;;6.00;1.65;;;;;;;;;;5003102;28;20824;-58
2024/04/02 10:51:45;;;;;;;6.18;1.73;;;;;;;;;;5000783;28;20065;-58
2024/04/02 10:54:11;;;;;;;6.55;2.08;;;;;;;;;;5004778;28;20042;-59
2024/04/02 10:56:36;;;;;;;7.50;1.83;;;;;;;;;;4997228;28;20117;-62
2024/04/02 10:59:03;;;;;;;5.88;1.70;;;;;;;;;;4996400;28;20034;-59
2024/04/02 11:01:29;;;;;;;5.47;1.75;;;;;;;;;;5005823;28;20022;-58
2024/04/02 11:03:54;;;;;;;5.88;1.13;;;;;;;;;;5001365;28;20036;-58
2024/04/02 11:06:19;;;;;;;7.25;1.83;;;;;;;;;;4990525;28;20101;-60
2024/04/02 11:08:48;;;;;;;5.13;1.50;;;;;;;;;;4994302;28;20030;-59
2024/04/02 11:11:20;;;;;;;4.73;1.63;;;;;;;;;;5003309;28;20057;-61
2024/04/02 11:13:46;;;;;;;4.10;1.38;;;;;;;;;;4998038;28;20382;-58
2024/04/02 11:16:11;;;;;;;5.20;1.48;;;;;;;;;;5004087;28;20072;-58
2024/04/02 11:18:36;;;;;;;4.13;1.20;;;;;;;;;;4996019;28;20333;-58
2024/04/02 11:21:02;;;;;;;8.05;1.63;;;;;;;;;;4997500;28;20049;-58
2024/04/02 11:26:14;;;;;;;2.92;1.13;;;;;;;;;;4999077;28;20037;-60
2024/04/02 11:28:40;;;;;;;3.83;1.40;;;;;;;;;;4997098;28;20125;-58
2024/04/02 11:31:05;;;;;;;4.93;1.40;;;;;;;;;;5006050;28;20061;-57
2024/04/02 11:33:31;;;;;;;5.40;1.30;;;;;;;;;;4997604;28;20042;-58
2024/04/02 11:35:56;;;;;;;4.57;1.35;;;;;;;;;;4998386;28;20025;-59
2024/04/02 11:38:21;;;;;;;5.40;1.23;;;;;;;;;;4999667;28;20038;-57
2024/04/02 11:40:47;;;;;;;3.58;1.58;;;;;;;;;;4994401;28;20030;-59
2024/04/02 11:43:12;;;;;;;4.32;1.60;;;;;;;;;;4991033;28;20040;-57
2024/04/02 11:45:37;;;;;;;5.05;1.70;;;;;;;;;;4990935;28;20127;-57
2024/04/02 11:48:03;;;;;;;6.57;1.45;;;;;;;;;;4987432;28;20077;-58
2024/04/02 11:50:29;;;;;;;6.43;1.70;;;;;;;;;;4988516;28;20113;-58
2024/04/02 11:52:54;;;;;;;3.95;1.63;;;;;;;;;;4988311;28;20612;-57
2024/04/02 11:55:21;;;;;;;3.67;1.40;;;;;;;;;;4988005;28;20038;-58
2024/04/02 12:00:30;;;;;;;3.85;1.50;;;;;;;;;;5003407;28;20416;-59
2024/04/02 12:02:55;;;;;;;5.68;1.70;;;;;;;;;;5005674;28;20038;-58
2024/04/02 12:05:21;;;;;;;5.13;1.48;;;;;;;;;;5005739;28;20029;-59
2024/04/02 12:07:46;;;;;;;6.45;1.65;;;;;;;;;;5003660;28;20547;-60
2024/04/02 12:10:12;;;;;;;3.55;1.60;;;;;;;;;;5004097;28;20034;-57
2024/04/02 12:12:37;;;;;;;3.65;1.60;;;;;;;;;;4999980;28;20038;-59
2024/04/02 12:15:03;;;;;;;5.50;1.85;;;;;;;;;;5005240;28;20041;-58
2024/04/02 12:17:29;;;;;;;3.85;1.30;;;;;;;;;;5003086;28;20027;-58
2024/04/02 12:19:57;;;;;;;4.30;1.48;;;;;;;;;;5002461;28;20141;-58
2024/04/02 12:22:23;;;;;;;4.88;1.60;;;;;;;;;;5020388;28;20425;-56
2024/04/02 12:24:48;;;;;;;4.25;2.00;;;;;;;;;;5004667;28;20042;-57
2024/04/02 12:27:13;;;;;;;5.15;1.65;;;;;;;;;;5004615;28;20059;-59
2024/04/02 12:29:39;;;;;;;5.25;1.73;;;;;;;;;;5003090;28;20045;-58
2024/04/02 12:32:05;;;;;;;4.63;1.75;;;;;;;;;;5005742;28;20042;-60
2024/04/02 12:34:31;;;;;;;4.70;1.77;;;;;;;;;;5001202;28;20136;-59
2024/04/02 12:36:56;;;;;;;4.55;1.50;;;;;;;;;;5005502;28;20105;-58
2024/04/02 12:39:21;;;;;;;3.85;1.38;;;;;;;;;;5003160;28;20045;-59
2024/04/02 12:41:47;;;;;;;4.75;1.30;;;;;;;;;;5004572;28;20061;-57
2024/04/02 12:44:12;;;;;;;4.82;1.42;;;;;;;;;;5003248;28;20064;-58
2024/04/02 12:46:38;;;;;;;3.80;1.35;;;;;;;;;;5004034;28;20034;-57
2024/04/02 12:49:07;;;;;;;4.95;1.48;;;;;;;;;;5002486;28;20038;-57
2024/04/02 12:51:33;;;;;;;4.72;1.20;;;;;;;;;;5004757;28;20096;-58
2024/04/02 12:53:59;;;;;;;4.93;1.60;;;;;;;;;;5003693;28;20053;-57
2024/04/02 12:56:24;;;;;;;4.38;1.00;;;;;;;;;;5004400;28;20034;-61
2024/04/02 12:58:50;;;;;;;3.50;1.00;;;;;;;;;;5002793;28;20033;-58
2024/04/02 13:01:16;;;;;;;3.15;0.90;;;;;;;;;;4995988;28;20034;-58
2024/04/02 13:03:41;;;;;;;3.05;0.90;;;;;;;;;;5001844;28;20046;-59
2024/04/02 13:06:06;;;;;;;3.40;1.10;;;;;;;;;;4995730;28;20088;-57
2024/04/02 13:08:32;;;;;;;2.28;0.93;;;;;;;;;;5000034;28;20502;-57
2024/04/02 13:10:57;;;;;;;2.33;0.70;;;;;;;;;;5000179;28;20042;-58
2024/04/02 13:13:22;;;;;;;3.10;0.98;;;;;;;;;;5000880;28;20037;-57
2024/04/02 13:15:48;;;;;;;2.63;1.20;;;;;;;;;;5002961;28;20431;-57
2024/04/02 13:18:13;;;;;;;4.22;1.00;;;;;;;;;;5000038;28;20025;-57
2024/04/02 13:20:39;;;;;;;2.97;1.00;;;;;;;;;;5002327;28;20101;-57
2024/04/02 13:23:05;;;;;;;4.72;1.00;;;;;;;;;;5005166;28;20026;-57
2024/04/02 13:25:30;;;;;;;3.70;0.70;;;;;;;;;;5006422;28;20022;-59
2024/04/02 13:27:56;;;;;;;3.47;0.98;;;;;;;;;;5003922;28;20040;-57
2024/04/02 13:30:21;;;;;;;4.13;1.10;;;;;;;;;;5004142;28;20026;-57
2024/04/02 13:32:47;;;;;;;3.35;1.08;;;;;;;;;;5001475;28;20101;-58
2024/04/02 13:35:17;;;;;;;4.68;1.27;;;;;;;;;;5007629;28;20212;-58
2024/04/02 13:37:42;;;;;;;4.32;1.02;;;;;;;;;;5004892;28;20413;-57
2024/04/02 13:40:08;;;;;;;3.38;1.10;;;;;;;;;;5005032;28;20014;-56
2024/04/02 13:42:33;;;;;;;3.25;1.30;;;;;;;;;;5004387;28;20041;-57
2024/04/02 13:44:58;;;;;;;3.00;1.40;;;;;;;;;;4994971;28;20544;-57
2024/04/02 13:47:24;;;;;;;4.13;1.33;;;;;;;;;;4999276;28;20281;-57
2024/04/02 13:49:49;;;;;;;5.03;1.60;;;;;;;;;;4988659;28;20034;-58
2024/04/02 13:52:14;;;;;;;4.32;1.83;;;;;;;;;;5002544;28;20438;-57
2024/04/02 13:54:40;;;;;;;6.57;1.65;;;;;;;;;;4991672;28;20748;-57
2024/04/02 13:57:05;;;;;;;6.10;1.40;;;;;;;;;;4989548;28;20089;-58
2024/04/02 13:59:30;;;;;;;3.45;1.30;;;;;;;;;;4990914;28;20022;-58
2024/04/02 14:01:56;;;;;;;5.35;1.52;;;;;;;;;;4992724;28;20060;-59
2024/04/02 14:04:21;;;;;;;4.30;1.73;;;;;;;;;;4988043;28;20034;-57
2024/04/02 14:06:46;;;;;;;4.68;2.03;;;;;;;;;;4990128;28;20421;-57
2024/04/02 14:09:12;;;;;;;5.90;2.10;;;;;;;;;;4991459;28;20375;-60
2024/04/02 14:11:37;;;;;;;6.45;2.50;;;;;;;;;;4994060;28;20026;-57
2024/04/02 14:14:02;;;;;;;6.55;2.50;;;;;;;;;;4992636;28;20568;-56
2024/04/02 14:16:28;;;;;;;6.57;2.20;;;;;;;;;;4990304;28;20018;-57
2024/04/02 14:18:55;;;;;;;4.28;2.13;;;;;;;;;;4989156;28;20030;-57
2024/04/02 14:21:21;;;;;;;4.88;2.17;;;;;;;;;;4998571;28;20513;-56
2024/04/02 14:23:47;;;;;;;5.85;2.33;;;;;;;;;;4994982;28;20038;-56
2024/04/02 14:26:12;;;;;;;5.28;2.35;;;;;;;;;;4995866;28;20044;-57
2024/04/02 14:28:39;;;;;;;6.57;2.00;;;;;;;;;;4988538;28;20034;-57
2024/04/02 14:31:05;;;;;;;5.72;2.53;;;;;;;;;;4988923;28;20520;-58